sensor_id;sensor_type;location;lat;lon;timestamp;P1;durP1;ratioP1;P2;durP2;ratioP2
72974;SDS011;61166;54.228;37.632;2023-04-03T00:02:22;21.75;;;7.53;;
72974;SDS011;61166;54.228;37.632;2023-04-03T00:04:49;16.23;;;6.77;;
72974;SDS011;61166;54.228;37.632;2023-04-03T00:07:15;18.27;;;6.20;;
72974;SDS011;61166;54.228;37.632;2023-04-03T00:09:41;13.82;;;6.15;;
72974;SDS011;61166;54.228;37.632;2023-04-03T00:12:09;14.20;;;6.97;;
72974;SDS011;61166;54.228;37.632;2023-04-03T00:14:36;16.77;;;7.57;;
72974;SDS011;61166;54.228;37.632;2023-04-03T00:17:03;14.80;;;7.50;;
72974;SDS011;61166;54.228;37.632;2023-04-03T00:19:29;24.25;;;8.63;;
72974;SDS011;61166;54.228;37.632;2023-04-03T00:21:56;14.27;;;8.70;;
72974;SDS011;61166;54.228;37.632;2023-04-03T00:24:23;17.52;;;8.43;;
72974;SDS011;61166;54.228;37.632;2023-04-03T00:26:49;18.75;;;7.93;;
72974;SDS011;61166;54.228;37.632;2023-04-03T00:29:16;15.77;;;8.37;;
72974;SDS011;61166;54.228;37.632;2023-04-03T00:31:42;15.73;;;7.95;;
72974;SDS011;61166;54.228;37.632;2023-04-03T00:34:09;17.85;;;9.00;;
72974;SDS011;61166;54.228;37.632;2023-04-03T00:36:35;17.20;;;8.30;;
72974;SDS011;61166;54.228;37.632;2023-04-03T00:39:02;18.00;;;8.88;;
72974;SDS011;61166;54.228;37.632;2023-04-03T00:41:29;17.10;;;8.60;;
72974;SDS011;61166;54.228;37.632;2023-04-03T00:43:55;16.63;;;7.82;;
72974;SDS011;61166;54.228;37.632;2023-04-03T00:46:22;15.45;;;7.93;;
72974;SDS011;61166;54.228;37.632;2023-04-03T00:48:48;15.43;;;7.95;;
72974;SDS011;61166;54.228;37.632;2023-04-03T00:51:17;17.73;;;9.30;;
72974;SDS011;61166;54.228;37.632;2023-04-03T00:53:49;19.37;;;7.93;;
72974;SDS011;61166;54.228;37.632;2023-04-03T00:56:20;16.33;;;8.48;;
72974;SDS011;61166;54.228;37.632;2023-04-03T00:58:51;18.40;;;8.27;;
72974;SDS011;61166;54.228;37.632;2023-04-03T01:01:31;17.80;;;8.82;;
72974;SDS011;61166;54.228;37.632;2023-04-03T01:03:58;13.77;;;7.50;;
72974;SDS011;61166;54.228;37.632;2023-04-03T01:06:27;14.73;;;8.07;;
72974;SDS011;61166;54.228;37.632;2023-04-03T01:08:56;16.40;;;8.05;;
72974;SDS011;61166;54.228;37.632;2023-04-03T01:11:23;13.35;;;7.70;;
72974;SDS011;61166;54.228;37.632;2023-04-03T01:13:49;16.75;;;8.15;;
72974;SDS011;61166;54.228;37.632;2023-04-03T01:16:16;18.35;;;8.55;;
72974;SDS011;61166;54.228;37.632;2023-04-03T01:18:46;18.70;;;8.27;;
72974;SDS011;61166;54.228;37.632;2023-04-03T01:24:10;14.35;;;7.60;;
72974;SDS011;61166;54.228;37.632;2023-04-03T01:26:43;14.25;;;8.63;;
72974;SDS011;61166;54.228;37.632;2023-04-03T01:29:10;16.52;;;8.20;;
72974;SDS011;61166;54.228;37.632;2023-04-03T01:34:03;17.13;;;9.07;;
72974;SDS011;61166;54.228;37.632;2023-04-03T01:36:30;15.60;;;8.57;;
72974;SDS011;61166;54.228;37.632;2023-04-03T01:38:58;16.70;;;8.57;;
72974;SDS011;61166;54.228;37.632;2023-04-03T01:41:26;17.30;;;8.75;;
72974;SDS011;61166;54.228;37.632;2023-04-03T01:43:53;17.67;;;8.57;;
72974;SDS011;61166;54.228;37.632;2023-04-03T01:46:19;16.23;;;8.55;;
72974;SDS011;61166;54.228;37.632;2023-04-03T01:48:46;19.08;;;9.18;;
72974;SDS011;61166;54.228;37.632;2023-04-03T01:51:14;19.73;;;9.75;;
72974;SDS011;61166;54.228;37.632;2023-04-03T01:53:41;18.35;;;9.13;;
72974;SDS011;61166;54.228;37.632;2023-04-03T01:56:07;17.93;;;8.30;;
72974;SDS011;61166;54.228;37.632;2023-04-03T01:58:34;17.70;;;8.57;;
72974;SDS011;61166;54.228;37.632;2023-04-03T02:01:01;20.25;;;9.55;;
72974;SDS011;61166;54.228;37.632;2023-04-03T02:03:28;18.40;;;9.02;;
72974;SDS011;61166;54.228;37.632;2023-04-03T02:05:55;15.45;;;8.07;;
72974;SDS011;61166;54.228;37.632;2023-04-03T02:08:21;14.73;;;7.47;;
72974;SDS011;61166;54.228;37.632;2023-04-03T02:10:48;17.92;;;9.00;;
72974;SDS011;61166;54.228;37.632;2023-04-03T02:13:16;19.63;;;9.20;;
72974;SDS011;61166;54.228;37.632;2023-04-03T02:15:43;16.75;;;9.13;;
72974;SDS011;61166;54.228;37.632;2023-04-03T02:18:09;19.45;;;9.10;;
72974;SDS011;61166;54.228;37.632;2023-04-03T02:20:36;19.20;;;9.07;;
72974;SDS011;61166;54.228;37.632;2023-04-03T02:23:04;17.88;;;9.02;;
72974;SDS011;61166;54.228;37.632;2023-04-03T02:25:31;18.60;;;8.70;;
72974;SDS011;61166;54.228;37.632;2023-04-03T02:27:58;17.73;;;8.32;;
72974;SDS011;61166;54.228;37.632;2023-04-03T02:30:24;18.20;;;9.05;;
72974;SDS011;61166;54.228;37.632;2023-04-03T02:32:51;19.03;;;7.70;;
72974;SDS011;61166;54.228;37.632;2023-04-03T02:35:18;17.63;;;8.98;;
72974;SDS011;61166;54.228;37.632;2023-04-03T02:37:45;18.77;;;8.45;;
72974;SDS011;61166;54.228;37.632;2023-04-03T02:40:11;15.60;;;6.07;;
72974;SDS011;61166;54.228;37.632;2023-04-03T02:42:38;12.77;;;6.18;;
72974;SDS011;61166;54.228;37.632;2023-04-03T02:45:05;13.17;;;7.17;;
72974;SDS011;61166;54.228;37.632;2023-04-03T02:47:32;12.48;;;7.13;;
72974;SDS011;61166;54.228;37.632;2023-04-03T02:50:01;15.48;;;6.43;;
72974;SDS011;61166;54.228;37.632;2023-04-03T02:52:29;12.80;;;6.78;;
72974;SDS011;61166;54.228;37.632;2023-04-03T02:54:56;17.38;;;8.95;;
72974;SDS011;61166;54.228;37.632;2023-04-03T02:57:22;15.90;;;8.60;;
72974;SDS011;61166;54.228;37.632;2023-04-03T02:59:49;6.55;;;3.13;;
72974;SDS011;61166;54.228;37.632;2023-04-03T03:02:15;11.30;;;5.68;;
72974;SDS011;61166;54.228;37.632;2023-04-03T03:04:42;8.20;;;4.05;;
72974;SDS011;61166;54.228;37.632;2023-04-03T03:07:09;15.95;;;8.00;;
72974;SDS011;61166;54.228;37.632;2023-04-03T03:09:38;16.17;;;9.03;;
72974;SDS011;61166;54.228;37.632;2023-04-03T03:12:04;17.88;;;8.63;;
72974;SDS011;61166;54.228;37.632;2023-04-03T03:14:31;11.25;;;5.63;;
72974;SDS011;61166;54.228;37.632;2023-04-03T03:16:57;17.30;;;8.95;;
72974;SDS011;61166;54.228;37.632;2023-04-03T03:19:24;16.40;;;9.10;;
72974;SDS011;61166;54.228;37.632;2023-04-03T03:21:51;16.27;;;8.90;;
72974;SDS011;61166;54.228;37.632;2023-04-03T03:24:17;21.10;;;9.48;;
72974;SDS011;61166;54.228;37.632;2023-04-03T03:26:44;20.00;;;9.85;;
72974;SDS011;61166;54.228;37.632;2023-04-03T03:29:10;18.58;;;9.68;;
72974;SDS011;61166;54.228;37.632;2023-04-03T03:31:37;16.38;;;9.52;;
72974;SDS011;61166;54.228;37.632;2023-04-03T03:34:03;15.90;;;8.40;;
72974;SDS011;61166;54.228;37.632;2023-04-03T03:36:30;17.05;;;8.73;;
72974;SDS011;61166;54.228;37.632;2023-04-03T03:38:57;18.15;;;8.45;;
72974;SDS011;61166;54.228;37.632;2023-04-03T03:41:24;16.77;;;9.07;;
72974;SDS011;61166;54.228;37.632;2023-04-03T03:43:50;19.50;;;9.45;;
72974;SDS011;61166;54.228;37.632;2023-04-03T03:46:17;17.40;;;8.63;;
72974;SDS011;61166;54.228;37.632;2023-04-03T03:48:43;19.05;;;9.18;;
72974;SDS011;61166;54.228;37.632;2023-04-03T03:51:10;19.65;;;9.10;;
72974;SDS011;61166;54.228;37.632;2023-04-03T03:53:36;18.08;;;8.93;;
72974;SDS011;61166;54.228;37.632;2023-04-03T03:56:03;19.58;;;8.88;;
72974;SDS011;61166;54.228;37.632;2023-04-03T03:58:30;19.73;;;9.10;;
72974;SDS011;61166;54.228;37.632;2023-04-03T04:00:59;20.20;;;10.90;;
72974;SDS011;61166;54.228;37.632;2023-04-03T04:03:27;19.60;;;9.88;;
72974;SDS011;61166;54.228;37.632;2023-04-03T04:05:54;19.25;;;10.18;;
72974;SDS011;61166;54.228;37.632;2023-04-03T04:08:20;19.70;;;8.40;;
72974;SDS011;61166;54.228;37.632;2023-04-03T04:10:47;22.03;;;9.07;;
72974;SDS011;61166;54.228;37.632;2023-04-03T04:13:14;18.27;;;8.60;;
72974;SDS011;61166;54.228;37.632;2023-04-03T04:15:41;46.30;;;20.55;;
72974;SDS011;61166;54.228;37.632;2023-04-03T04:18:09;22.13;;;10.57;;
72974;SDS011;61166;54.228;37.632;2023-04-03T04:20:35;19.80;;;9.38;;
72974;SDS011;61166;54.228;37.632;2023-04-03T04:23:02;23.07;;;9.83;;
72974;SDS011;61166;54.228;37.632;2023-04-03T04:25:28;22.50;;;9.27;;
72974;SDS011;61166;54.228;37.632;2023-04-03T04:27:55;24.95;;;9.55;;
72974;SDS011;61166;54.228;37.632;2023-04-03T04:30:21;22.23;;;9.80;;
72974;SDS011;61166;54.228;37.632;2023-04-03T04:32:48;20.73;;;9.20;;
72974;SDS011;61166;54.228;37.632;2023-04-03T04:35:15;21.27;;;9.70;;
72974;SDS011;61166;54.228;37.632;2023-04-03T04:37:42;20.58;;;9.45;;
72974;SDS011;61166;54.228;37.632;2023-04-03T04:40:09;22.77;;;8.98;;
72974;SDS011;61166;54.228;37.632;2023-04-03T04:42:38;22.08;;;9.68;;
72974;SDS011;61166;54.228;37.632;2023-04-03T04:45:04;20.10;;;9.05;;
72974;SDS011;61166;54.228;37.632;2023-04-03T04:47:31;20.43;;;8.90;;
72974;SDS011;61166;54.228;37.632;2023-04-03T04:49:58;23.10;;;9.13;;
72974;SDS011;61166;54.228;37.632;2023-04-03T04:52:24;24.60;;;9.95;;
72974;SDS011;61166;54.228;37.632;2023-04-03T04:54:51;16.38;;;8.80;;
72974;SDS011;61166;54.228;37.632;2023-04-03T04:57:17;20.98;;;10.18;;
72974;SDS011;61166;54.228;37.632;2023-04-03T04:59:44;18.10;;;9.03;;
72974;SDS011;61166;54.228;37.632;2023-04-03T05:02:10;16.95;;;7.95;;
72974;SDS011;61166;54.228;37.632;2023-04-03T05:04:37;16.85;;;7.05;;
72974;SDS011;61166;54.228;37.632;2023-04-03T05:07:03;20.77;;;9.10;;
72974;SDS011;61166;54.228;37.632;2023-04-03T05:09:30;21.35;;;8.23;;
72974;SDS011;61166;54.228;37.632;2023-04-03T05:11:56;18.03;;;8.50;;
72974;SDS011;61166;54.228;37.632;2023-04-03T05:14:23;15.77;;;8.60;;
72974;SDS011;61166;54.228;37.632;2023-04-03T05:16:50;17.33;;;9.25;;
72974;SDS011;61166;54.228;37.632;2023-04-03T05:19:18;15.57;;;8.60;;
72974;SDS011;61166;54.228;37.632;2023-04-03T05:21:45;17.45;;;8.85;;
72974;SDS011;61166;54.228;37.632;2023-04-03T05:24:11;18.33;;;8.80;;
72974;SDS011;61166;54.228;37.632;2023-04-03T05:26:38;16.77;;;8.35;;
72974;SDS011;61166;54.228;37.632;2023-04-03T05:29:04;19.75;;;9.65;;
72974;SDS011;61166;54.228;37.632;2023-04-03T05:31:31;21.27;;;9.70;;
72974;SDS011;61166;54.228;37.632;2023-04-03T05:33:57;19.15;;;9.15;;
72974;SDS011;61166;54.228;37.632;2023-04-03T05:36:24;24.33;;;10.00;;
72974;SDS011;61166;54.228;37.632;2023-04-03T05:38:51;22.38;;;9.63;;
72974;SDS011;61166;54.228;37.632;2023-04-03T05:41:18;19.20;;;10.52;;
72974;SDS011;61166;54.228;37.632;2023-04-03T05:43:45;24.80;;;10.77;;
72974;SDS011;61166;54.228;37.632;2023-04-03T05:46:11;20.85;;;9.75;;
72974;SDS011;61166;54.228;37.632;2023-04-03T05:48:39;22.43;;;10.10;;
72974;SDS011;61166;54.228;37.632;2023-04-03T05:51:06;21.10;;;10.35;;
72974;SDS011;61166;54.228;37.632;2023-04-03T05:53:35;23.58;;;11.00;;
72974;SDS011;61166;54.228;37.632;2023-04-03T05:56:02;23.90;;;9.90;;
72974;SDS011;61166;54.228;37.632;2023-04-03T05:58:29;21.02;;;10.75;;
72974;SDS011;61166;54.228;37.632;2023-04-03T06:00:56;26.30;;;9.60;;
72974;SDS011;61166;54.228;37.632;2023-04-03T06:03:23;21.90;;;9.48;;
72974;SDS011;61166;54.228;37.632;2023-04-03T06:05:50;27.95;;;10.35;;
72974;SDS011;61166;54.228;37.632;2023-04-03T06:08:16;24.05;;;10.57;;
72974;SDS011;61166;54.228;37.632;2023-04-03T06:10:43;30.10;;;12.63;;
72974;SDS011;61166;54.228;37.632;2023-04-03T06:13:09;26.43;;;11.23;;
72974;SDS011;61166;54.228;37.632;2023-04-03T06:15:37;24.15;;;11.50;;
72974;SDS011;61166;54.228;37.632;2023-04-03T06:18:05;36.03;;;14.27;;
72974;SDS011;61166;54.228;37.632;2023-04-03T06:20:32;21.00;;;8.70;;
72974;SDS011;61166;54.228;37.632;2023-04-03T06:22:59;25.40;;;12.85;;
72974;SDS011;61166;54.228;37.632;2023-04-03T06:25:25;31.97;;;11.43;;
72974;SDS011;61166;54.228;37.632;2023-04-03T06:27:52;28.83;;;12.60;;
72974;SDS011;61166;54.228;37.632;2023-04-03T06:30:18;20.42;;;10.00;;
72974;SDS011;61166;54.228;37.632;2023-04-03T06:32:45;30.40;;;11.30;;
72974;SDS011;61166;54.228;37.632;2023-04-03T06:35:11;19.17;;;11.00;;
72974;SDS011;61166;54.228;37.632;2023-04-03T06:37:38;21.57;;;11.33;;
72974;SDS011;61166;54.228;37.632;2023-04-03T06:40:04;18.70;;;9.77;;
72974;SDS011;61166;54.228;37.632;2023-04-03T06:42:32;23.77;;;10.30;;
72974;SDS011;61166;54.228;37.632;2023-04-03T06:44:58;23.83;;;8.25;;
72974;SDS011;61166;54.228;37.632;2023-04-03T06:47:25;26.05;;;10.75;;
72974;SDS011;61166;54.228;37.632;2023-04-03T06:49:51;19.97;;;9.53;;
72974;SDS011;61166;54.228;37.632;2023-04-03T06:52:18;17.15;;;9.77;;
72974;SDS011;61166;54.228;37.632;2023-04-03T06:54:44;18.85;;;9.43;;
72974;SDS011;61166;54.228;37.632;2023-04-03T06:57:11;23.52;;;9.82;;
72974;SDS011;61166;54.228;37.632;2023-04-03T06:59:37;19.05;;;9.52;;
72974;SDS011;61166;54.228;37.632;2023-04-03T07:02:04;17.93;;;9.40;;
72974;SDS011;61166;54.228;37.632;2023-04-03T07:04:31;17.13;;;7.35;;
72974;SDS011;61166;54.228;37.632;2023-04-03T07:06:57;18.40;;;8.90;;
72974;SDS011;61166;54.228;37.632;2023-04-03T07:09:24;17.02;;;8.27;;
72974;SDS011;61166;54.228;37.632;2023-04-03T07:11:50;17.25;;;8.27;;
72974;SDS011;61166;54.228;37.632;2023-04-03T07:14:17;19.73;;;8.63;;
72974;SDS011;61166;54.228;37.632;2023-04-03T07:16:43;19.65;;;9.00;;
72974;SDS011;61166;54.228;37.632;2023-04-03T07:19:10;18.90;;;7.82;;
72974;SDS011;61166;54.228;37.632;2023-04-03T07:21:36;14.93;;;7.70;;
72974;SDS011;61166;54.228;37.632;2023-04-03T07:24:04;12.13;;;6.72;;
72974;SDS011;61166;54.228;37.632;2023-04-03T07:26:30;14.17;;;6.87;;
72974;SDS011;61166;54.228;37.632;2023-04-03T07:28:57;13.20;;;6.82;;
72974;SDS011;61166;54.228;37.632;2023-04-03T07:31:23;11.75;;;6.93;;
72974;SDS011;61166;54.228;37.632;2023-04-03T07:33:50;17.58;;;7.47;;
72974;SDS011;61166;54.228;37.632;2023-04-03T07:36:18;12.50;;;7.53;;
72974;SDS011;61166;54.228;37.632;2023-04-03T07:38:47;14.37;;;6.90;;
72974;SDS011;61166;54.228;37.632;2023-04-03T07:41:15;12.80;;;7.22;;
72974;SDS011;61166;54.228;37.632;2023-04-03T07:43:43;18.58;;;7.55;;
72974;SDS011;61166;54.228;37.632;2023-04-03T07:46:10;14.57;;;7.07;;
72974;SDS011;61166;54.228;37.632;2023-04-03T07:48:37;14.57;;;7.07;;
72974;SDS011;61166;54.228;37.632;2023-04-03T07:51:04;13.47;;;6.73;;
72974;SDS011;61166;54.228;37.632;2023-04-03T07:53:31;16.48;;;6.60;;
72974;SDS011;61166;54.228;37.632;2023-04-03T07:55:58;15.93;;;8.75;;
72974;SDS011;61166;54.228;37.632;2023-04-03T07:58:27;13.10;;;7.35;;
72974;SDS011;61166;54.228;37.632;2023-04-03T08:00:53;16.67;;;6.60;;
72974;SDS011;61166;54.228;37.632;2023-04-03T08:03:20;15.17;;;7.67;;
72974;SDS011;61166;54.228;37.632;2023-04-03T08:05:50;16.20;;;8.30;;
72974;SDS011;61166;54.228;37.632;2023-04-03T08:08:18;13.88;;;7.22;;
72974;SDS011;61166;54.228;37.632;2023-04-03T08:10:50;17.80;;;8.10;;
72974;SDS011;61166;54.228;37.632;2023-04-03T08:13:18;17.67;;;7.82;;
72974;SDS011;61166;54.228;37.632;2023-04-03T08:15:46;17.67;;;7.87;;
72974;SDS011;61166;54.228;37.632;2023-04-03T08:18:14;17.85;;;8.75;;
72974;SDS011;61166;54.228;37.632;2023-04-03T08:20:41;20.40;;;8.70;;
72974;SDS011;61166;54.228;37.632;2023-04-03T08:23:08;17.83;;;7.80;;
72974;SDS011;61166;54.228;37.632;2023-04-03T08:25:39;21.73;;;8.70;;
72974;SDS011;61166;54.228;37.632;2023-04-03T08:28:09;10.43;;;4.33;;
72974;SDS011;61166;54.228;37.632;2023-04-03T08:30:40;14.40;;;7.43;;
72974;SDS011;61166;54.228;37.632;2023-04-03T08:33:07;12.18;;;8.00;;
72974;SDS011;61166;54.228;37.632;2023-04-03T08:35:38;15.18;;;6.43;;
72974;SDS011;61166;54.228;37.632;2023-04-03T08:38:06;12.70;;;6.82;;
72974;SDS011;61166;54.228;37.632;2023-04-03T08:40:34;13.07;;;6.70;;
72974;SDS011;61166;54.228;37.632;2023-04-03T08:45:46;13.45;;;8.18;;
72974;SDS011;61166;54.228;37.632;2023-04-03T08:51:14;14.77;;;7.07;;
72974;SDS011;61166;54.228;37.632;2023-04-03T08:53:50;10.27;;;6.10;;
72974;SDS011;61166;54.228;37.632;2023-04-03T08:56:24;13.52;;;6.68;;
72974;SDS011;61166;54.228;37.632;2023-04-03T08:58:55;14.95;;;6.70;;
72974;SDS011;61166;54.228;37.632;2023-04-03T09:01:25;12.35;;;6.50;;
72974;SDS011;61166;54.228;37.632;2023-04-03T09:03:56;15.77;;;7.90;;
72974;SDS011;61166;54.228;37.632;2023-04-03T09:06:27;13.37;;;6.90;;
72974;SDS011;61166;54.228;37.632;2023-04-03T09:14:49;12.15;;;6.72;;
72974;SDS011;61166;54.228;37.632;2023-04-03T09:22:56;13.93;;;8.05;;
72974;SDS011;61166;54.228;37.632;2023-04-03T09:25:25;13.95;;;7.32;;
72974;SDS011;61166;54.228;37.632;2023-04-03T09:27:57;14.60;;;8.40;;
72974;SDS011;61166;54.228;37.632;2023-04-03T09:30:25;11.65;;;6.90;;
72974;SDS011;61166;54.228;37.632;2023-04-03T09:32:53;17.30;;;8.43;;
72974;SDS011;61166;54.228;37.632;2023-04-03T09:35:36;11.18;;;6.45;;
72974;SDS011;61166;54.228;37.632;2023-04-03T09:40:45;11.48;;;7.65;;
72974;SDS011;61166;54.228;37.632;2023-04-03T09:43:33;13.52;;;7.75;;
72974;SDS011;61166;54.228;37.632;2023-04-03T09:48:52;13.95;;;7.95;;
72974;SDS011;61166;54.228;37.632;2023-04-03T09:51:33;13.95;;;8.23;;
72974;SDS011;61166;54.228;37.632;2023-04-03T09:53:59;19.02;;;9.43;;
72974;SDS011;61166;54.228;37.632;2023-04-03T09:56:29;18.77;;;10.20;;
72974;SDS011;61166;54.228;37.632;2023-04-03T10:01:33;15.07;;;9.07;;
72974;SDS011;61166;54.228;37.632;2023-04-03T10:04:09;16.23;;;9.73;;
72974;SDS011;61166;54.228;37.632;2023-04-03T10:14:37;17.25;;;10.10;;
72974;SDS011;61166;54.228;37.632;2023-04-03T10:19:43;13.52;;;8.65;;
72974;SDS011;61166;54.228;37.632;2023-04-03T10:27:39;14.60;;;9.10;;
72974;SDS011;61166;54.228;37.632;2023-04-03T10:33:05;13.43;;;8.95;;
72974;SDS011;61166;54.228;37.632;2023-04-03T10:38:29;13.67;;;7.97;;
72974;SDS011;61166;54.228;37.632;2023-04-03T10:47:12;11.02;;;5.75;;
72974;SDS011;61166;54.228;37.632;2023-04-03T10:52:54;9.80;;;6.60;;
72974;SDS011;61166;54.228;37.632;2023-04-03T10:55:32;5.45;;;3.63;;
72974;SDS011;61166;54.228;37.632;2023-04-03T10:58:03;7.28;;;4.32;;
72974;SDS011;61166;54.228;37.632;2023-04-03T11:00:41;10.18;;;5.20;;
72974;SDS011;61166;54.228;37.632;2023-04-03T11:03:16;7.70;;;4.80;;
72974;SDS011;61166;54.228;37.632;2023-04-03T11:05:53;9.10;;;5.50;;
72974;SDS011;61166;54.228;37.632;2023-04-03T11:08:26;7.93;;;4.90;;
72974;SDS011;61166;54.228;37.632;2023-04-03T11:11:00;7.90;;;5.55;;
72974;SDS011;61166;54.228;37.632;2023-04-03T11:13:42;7.97;;;5.07;;
72974;SDS011;61166;54.228;37.632;2023-04-03T11:16:19;7.35;;;4.13;;
72974;SDS011;61166;54.228;37.632;2023-04-03T11:18:59;10.03;;;5.43;;
72974;SDS011;61166;54.228;37.632;2023-04-03T11:21:31;8.35;;;4.65;;
72974;SDS011;61166;54.228;37.632;2023-04-03T11:24:05;9.18;;;5.05;;
72974;SDS011;61166;54.228;37.632;2023-04-03T11:26:39;6.57;;;4.45;;
72974;SDS011;61166;54.228;37.632;2023-04-03T11:29:12;7.75;;;4.68;;
72974;SDS011;61166;54.228;37.632;2023-04-03T11:34:46;10.15;;;8.63;;
72974;SDS011;61166;54.228;37.632;2023-04-03T11:40:18;8.02;;;5.38;;
72974;SDS011;61166;54.228;37.632;2023-04-03T11:42:54;11.75;;;5.40;;
72974;SDS011;61166;54.228;37.632;2023-04-03T11:48:06;8.57;;;6.18;;
72974;SDS011;61166;54.228;37.632;2023-04-03T11:50:55;11.15;;;7.75;;
72974;SDS011;61166;54.228;37.632;2023-04-03T11:55:57;8.23;;;4.63;;
72974;SDS011;61166;54.228;37.632;2023-04-03T11:58:26;7.63;;;5.00;;
72974;SDS011;61166;54.228;37.632;2023-04-03T12:00:57;9.07;;;4.68;;
72974;SDS011;61166;54.228;37.632;2023-04-03T12:05:51;10.32;;;5.53;;
72974;SDS011;61166;54.228;37.632;2023-04-03T12:08:28;7.88;;;4.20;;
72974;SDS011;61166;54.228;37.632;2023-04-03T12:13:37;9.52;;;4.43;;
72974;SDS011;61166;54.228;37.632;2023-04-03T12:16:19;7.32;;;5.38;;
72974;SDS011;61166;54.228;37.632;2023-04-03T12:21:22;10.32;;;6.38;;
72974;SDS011;61166;54.228;37.632;2023-04-03T12:26:26;8.25;;;4.32;;
72974;SDS011;61166;54.228;37.632;2023-04-03T12:29:13;10.05;;;4.70;;
72974;SDS011;61166;54.228;37.632;2023-04-03T12:37:16;9.73;;;5.10;;
72974;SDS011;61166;54.228;37.632;2023-04-03T12:39:54;7.70;;;4.10;;
72974;SDS011;61166;54.228;37.632;2023-04-03T12:42:55;9.82;;;4.85;;
72974;SDS011;61166;54.228;37.632;2023-04-03T12:48:10;10.73;;;5.45;;
72974;SDS011;61166;54.228;37.632;2023-04-03T12:50:39;6.70;;;4.00;;
72974;SDS011;61166;54.228;37.632;2023-04-03T12:53:12;15.77;;;5.45;;
72974;SDS011;61166;54.228;37.632;2023-04-03T12:55:41;14.80;;;5.53;;
72974;SDS011;61166;54.228;37.632;2023-04-03T12:58:24;15.02;;;6.95;;
72974;SDS011;61166;54.228;37.632;2023-04-03T13:00:59;9.85;;;5.05;;
72974;SDS011;61166;54.228;37.632;2023-04-03T13:03:30;15.80;;;7.70;;
72974;SDS011;61166;54.228;37.632;2023-04-03T13:06:00;18.30;;;8.93;;
72974;SDS011;61166;54.228;37.632;2023-04-03T13:08:28;11.48;;;5.30;;
72974;SDS011;61166;54.228;37.632;2023-04-03T13:10:56;55.75;;;28.02;;
72974;SDS011;61166;54.228;37.632;2023-04-03T13:13:27;122.38;;;73.13;;
72974;SDS011;61166;54.228;37.632;2023-04-03T13:15:53;103.23;;;63.80;;
72974;SDS011;61166;54.228;37.632;2023-04-03T13:18:31;141.63;;;80.63;;
72974;SDS011;61166;54.228;37.632;2023-04-03T13:21:01;146.90;;;82.20;;
72974;SDS011;61166;54.228;37.632;2023-04-03T13:23:50;125.97;;;74.07;;
72974;SDS011;61166;54.228;37.632;2023-04-03T13:26:37;23.88;;;11.43;;
72974;SDS011;61166;54.228;37.632;2023-04-03T13:29:14;51.87;;;29.93;;
72974;SDS011;61166;54.228;37.632;2023-04-03T13:31:56;10.20;;;4.22;;
72974;SDS011;61166;54.228;37.632;2023-04-03T13:34:24;11.05;;;5.85;;
72974;SDS011;61166;54.228;37.632;2023-04-03T13:36:56;72.40;;;52.75;;
72974;SDS011;61166;54.228;37.632;2023-04-03T13:39:29;35.25;;;20.40;;
72974;SDS011;61166;54.228;37.632;2023-04-03T13:41:59;11.03;;;5.27;;
72974;SDS011;61166;54.228;37.632;2023-04-03T13:44:30;14.25;;;5.43;;
72974;SDS011;61166;54.228;37.632;2023-04-03T13:49:55;26.42;;;10.27;;
72974;SDS011;61166;54.228;37.632;2023-04-03T13:52:30;91.05;;;48.00;;
72974;SDS011;61166;54.228;37.632;2023-04-03T13:55:17;16.97;;;7.10;;
72974;SDS011;61166;54.228;37.632;2023-04-03T13:57:59;54.53;;;42.63;;
72974;SDS011;61166;54.228;37.632;2023-04-03T14:03:47;48.65;;;35.13;;
72974;SDS011;61166;54.228;37.632;2023-04-03T14:06:23;20.95;;;7.38;;
72974;SDS011;61166;54.228;37.632;2023-04-03T14:08:51;20.37;;;13.53;;
72974;SDS011;61166;54.228;37.632;2023-04-03T14:11:22;22.52;;;8.85;;
72974;SDS011;61166;54.228;37.632;2023-04-03T14:13:51;12.88;;;7.13;;
72974;SDS011;61166;54.228;37.632;2023-04-03T14:16:19;19.42;;;9.88;;
72974;SDS011;61166;54.228;37.632;2023-04-03T14:18:50;15.07;;;9.13;;
72974;SDS011;61166;54.228;37.632;2023-04-03T14:21:17;17.70;;;8.80;;
72974;SDS011;61166;54.228;37.632;2023-04-03T14:23:45;24.00;;;9.88;;
72974;SDS011;61166;54.228;37.632;2023-04-03T14:26:19;15.73;;;7.35;;
72974;SDS011;61166;54.228;37.632;2023-04-03T14:28:49;13.18;;;7.70;;
72974;SDS011;61166;54.228;37.632;2023-04-03T14:31:19;11.05;;;5.53;;
72974;SDS011;61166;54.228;37.632;2023-04-03T14:33:47;14.33;;;8.27;;
72974;SDS011;61166;54.228;37.632;2023-04-03T14:36:14;9.95;;;4.68;;
72974;SDS011;61166;54.228;37.632;2023-04-03T14:38:41;8.77;;;4.15;;
72974;SDS011;61166;54.228;37.632;2023-04-03T14:41:10;12.82;;;5.00;;
72974;SDS011;61166;54.228;37.632;2023-04-03T14:43:42;15.13;;;7.10;;
72974;SDS011;61166;54.228;37.632;2023-04-03T14:46:16;12.30;;;6.23;;
72974;SDS011;61166;54.228;37.632;2023-04-03T14:48:43;11.15;;;4.70;;
72974;SDS011;61166;54.228;37.632;2023-04-03T14:51:14;11.80;;;6.22;;
72974;SDS011;61166;54.228;37.632;2023-04-03T14:53:42;12.38;;;6.88;;
72974;SDS011;61166;54.228;37.632;2023-04-03T14:56:18;13.88;;;7.55;;
72974;SDS011;61166;54.228;37.632;2023-04-03T14:58:49;34.63;;;21.73;;
72974;SDS011;61166;54.228;37.632;2023-04-03T15:01:17;12.52;;;7.95;;
72974;SDS011;61166;54.228;37.632;2023-04-03T15:03:44;9.35;;;5.25;;
72974;SDS011;61166;54.228;37.632;2023-04-03T15:06:12;15.32;;;7.22;;
72974;SDS011;61166;54.228;37.632;2023-04-03T15:08:39;15.40;;;5.90;;
72974;SDS011;61166;54.228;37.632;2023-04-03T15:11:08;7.77;;;3.17;;
72974;SDS011;61166;54.228;37.632;2023-04-03T15:13:36;57.75;;;43.33;;
72974;SDS011;61166;54.228;37.632;2023-04-03T15:16:04;33.35;;;29.20;;
72974;SDS011;61166;54.228;37.632;2023-04-03T15:18:31;34.90;;;30.15;;
72974;SDS011;61166;54.228;37.632;2023-04-03T15:21:02;32.35;;;28.80;;
72974;SDS011;61166;54.228;37.632;2023-04-03T15:23:29;33.63;;;30.17;;
72974;SDS011;61166;54.228;37.632;2023-04-03T15:25:56;30.65;;;27.40;;
72974;SDS011;61166;54.228;37.632;2023-04-03T15:31:03;17.05;;;9.25;;
72974;SDS011;61166;54.228;37.632;2023-04-03T15:33:31;16.73;;;10.27;;
72974;SDS011;61166;54.228;37.632;2023-04-03T15:36:01;16.83;;;8.80;;
72974;SDS011;61166;54.228;37.632;2023-04-03T15:38:32;22.45;;;9.93;;
72974;SDS011;61166;54.228;37.632;2023-04-03T15:40:59;14.40;;;6.95;;
72974;SDS011;61166;54.228;37.632;2023-04-03T15:43:25;14.07;;;6.80;;
72974;SDS011;61166;54.228;37.632;2023-04-03T15:45:52;20.08;;;9.85;;
72974;SDS011;61166;54.228;37.632;2023-04-03T15:48:23;21.40;;;10.37;;
72974;SDS011;61166;54.228;37.632;2023-04-03T15:50:49;18.55;;;9.48;;
72974;SDS011;61166;54.228;37.632;2023-04-03T15:53:17;22.02;;;15.40;;
72974;SDS011;61166;54.228;37.632;2023-04-03T15:55:45;24.45;;;18.75;;
72974;SDS011;61166;54.228;37.632;2023-04-03T15:58:12;49.50;;;38.78;;
72974;SDS011;61166;54.228;37.632;2023-04-03T16:00:39;57.90;;;43.93;;
72974;SDS011;61166;54.228;37.632;2023-04-03T16:03:14;26.60;;;18.25;;
72974;SDS011;61166;54.228;37.632;2023-04-03T16:05:43;16.02;;;9.50;;
72974;SDS011;61166;54.228;37.632;2023-04-03T16:08:10;31.55;;;25.73;;
72974;SDS011;61166;54.228;37.632;2023-04-03T16:10:37;22.70;;;17.88;;
72974;SDS011;61166;54.228;37.632;2023-04-03T16:13:06;17.70;;;14.17;;